Time;durP1;ratioP1;P1;durP2;ratioP2;P2;SDS_P1;SDS_P2;PMS_P1;PMS_P2;Temp;Humidity;BMP_temperature;BMP_pressure;BME280_temperature;BME280_humidity;BME280_pressure;Samples;Min_cycle;Max_cycle;Signal;HPM_P1;HPM_P2
2022/04/06 00:01:37;;;;;;;;;;;8.50;99.90;;;;;;5054994;28;20131;-73
2022/04/06 00:04:03;;;;;;;10.85;3.45;;;8.50;99.90;;;;;;5053492;28;19920;-73
2022/04/06 00:06:29;;;;;;;;;;;8.40;99.90;;;;;;5072637;28;20040;-74
2022/04/06 00:08:54;;;;;;;12.00;3.90;;;8.50;99.90;;;;;;5073135;28;19924;-74
2022/04/06 00:11:20;;;;;;;;;;;8.50;99.90;;;;;;5072326;28;20049;-73
2022/04/06 00:13:45;;;;;;;10.07;3.65;;;8.50;99.90;;;;;;5088639;28;19927;-73
2022/04/06 00:16:11;;;;;;;;;;;8.50;99.90;;;;;;5055556;28;20056;-73
2022/04/06 00:18:36;;;;;;;11.32;3.95;;;8.50;99.90;;;;;;5053051;28;19928;-73
2022/04/06 00:21:02;;;;;;;;;;;8.50;99.90;;;;;;5055507;28;20045;-73
2022/04/06 00:23:28;;;;;;;10.40;3.72;;;8.60;99.90;;;;;;5054730;28;20016;-73
2022/04/06 00:26:00;;;;;;;;;;;8.60;99.90;;;;;;5072752;28;20133;-73
2022/04/06 00:28:26;;;;;;;13.15;4.38;;;8.60;99.90;;;;;;5071576;28;20025;-74
2022/04/06 00:30:52;;;;;;;8.35;3.53;;;8.60;99.90;;;;;;5072476;28;20472;-73
2022/04/06 00:33:17;;;;;;;;;;;8.60;99.90;;;;;;5072416;28;20077;-74
2022/04/06 00:35:43;;;;;;;8.93;3.25;;;8.60;99.90;;;;;;5072068;28;19924;-74
2022/04/06 00:38:09;;;;;;;;;;;8.70;99.90;;;;;;5054842;28;20049;-73
2022/04/06 00:40:35;;;;;;;10.00;3.55;;;8.70;99.90;;;;;;5053524;28;19927;-73
2022/04/06 00:43:10;;;;;;;9.45;3.70;;;8.70;99.90;;;;;;5071860;28;20121;-74
2022/04/06 00:45:38;;;;;;;11.95;3.20;;;8.70;99.90;;;;;;5053578;28;20124;-74
2022/04/06 00:48:04;;;;;;;11.40;3.47;;;8.80;99.90;;;;;;5072435;28;20048;-74
2022/04/06 00:50:31;;;;;;;15.30;3.33;;;8.80;99.90;;;;;;5053901;28;20075;-74
2022/04/06 00:52:57;;;;;;;10.15;3.50;;;8.80;99.90;;;;;;5071564;28;20107;-74
2022/04/06 00:55:31;;;;;;;5.93;3.22;;;8.80;99.90;;;;;;5054033;28;20098;-74
2022/04/06 00:58:01;;;;;;;12.13;3.40;;;8.80;99.90;;;;;;5054027;28;20087;-74
2022/04/06 01:00:29;;;;;;;12.30;3.13;;;8.80;99.90;;;;;;5071493;28;20057;-73
2022/04/06 01:02:55;;;;;;;16.27;3.60;;;8.80;99.90;;;;;;5071577;28;20060;-74
2022/04/06 01:05:21;;;;;;;;;;;8.90;99.90;;;;;;5072557;28;20411;-74
2022/04/06 01:07:51;;;;;;;8.77;2.60;;;8.80;99.90;;;;;;5053374;28;19959;-74
2022/04/06 01:10:18;;;;;;;8.32;2.80;;;8.90;99.90;;;;;;5071859;28;20554;-74
2022/04/06 01:12:48;;;;;;;8.15;2.65;;;8.90;99.90;;;;;;5071565;28;20033;-74
2022/04/06 01:15:16;;;;;;;10.38;2.80;;;9.00;99.90;;;;;;5053847;28;20124;-74
2022/04/06 01:17:42;;;;;;;15.20;3.50;;;9.00;99.90;;;;;;5071622;28;20400;-74
2022/04/06 01:20:10;;;;;;;10.80;2.90;;;9.00;99.90;;;;;;5054442;28;20058;-74
2022/04/06 01:22:36;;;;;;;8.35;2.70;;;8.90;99.90;;;;;;5052919;28;20148;-73
2022/04/06 01:25:05;;;;;;;10.95;3.00;;;8.90;99.90;;;;;;5072268;28;20036;-73
2022/04/06 01:27:30;;;;;;;10.52;3.30;;;8.90;99.90;;;;;;5053401;28;20044;-73
2022/04/06 01:29:59;;;;;;;;;;;8.90;99.90;;;;;;5072108;28;20040;-74
2022/04/06 01:32:27;;;;;;;6.72;2.80;;;8.90;99.90;;;;;;5070348;28;19931;-74
2022/04/06 01:34:54;;;;;;;9.23;2.63;;;8.90;99.90;;;;;;5052545;28;20041;-74
2022/04/06 01:37:21;;;;;;;11.80;3.00;;;8.90;99.90;;;;;;5071554;28;20053;-74
2022/04/06 01:39:48;;;;;;;9.63;2.90;;;8.80;99.90;;;;;;5071883;28;20531;-74
2022/04/06 01:42:15;;;;;;;9.93;2.80;;;8.90;99.90;;;;;;5053486;28;20404;-74
2022/04/06 01:44:44;;;;;;;15.52;3.17;;;8.90;99.90;;;;;;5072060;28;20551;-74
2022/04/06 01:47:10;;;;;;;7.30;2.55;;;8.80;99.90;;;;;;5057583;28;20128;-74
2022/04/06 01:52:21;;;;;;;7.78;2.22;;;8.80;99.90;;;;;;5075199;28;20114;-74
2022/04/06 01:54:48;;;;;;;;;;;8.80;99.90;;;;;;5075971;28;20036;-74
2022/04/06 01:57:15;;;;;;;10.63;2.42;;;8.80;99.90;;;;;;5056760;28;19927;-74
2022/04/06 01:59:41;;;;;;;8.32;2.38;;;8.70;99.90;;;;;;5056984;28;20048;-74
2022/04/06 02:02:09;;;;;;;6.35;2.38;;;8.80;99.90;;;;;;5075389;28;20052;-74
2022/04/06 02:04:36;;;;;;;8.65;2.38;;;8.80;99.90;;;;;;5073417;28;20117;-74
2022/04/06 02:07:01;;;;;;;9.43;2.38;;;8.70;99.90;;;;;;5075157;28;20041;-74
2022/04/06 02:09:27;;;;;;;;;;;8.70;99.90;;;;;;5056974;28;20480;-74
2022/04/06 02:11:54;;;;;;;11.18;2.35;;;8.80;99.90;;;;;;5056893;28;19928;-74
2022/04/06 02:14:19;;;;;;;12.50;2.50;;;8.80;99.90;;;;;;5074719;28;20044;-74
2022/04/06 02:16:45;;;;;;;;;;;8.80;99.90;;;;;;5075368;28;20058;-74
2022/04/06 02:19:11;;;;;;;7.40;2.25;;;8.80;99.90;;;;;;5056187;28;19920;-74
2022/04/06 02:21:36;;;;;;;;;;;8.80;99.90;;;;;;5056852;28;20045;-74
2022/04/06 02:24:02;;;;;;;9.00;2.20;;;8.80;99.90;;;;;;5074072;28;19920;-74
2022/04/06 02:26:28;;;;;;;;;;;8.80;99.90;;;;;;5057123;28;20087;-73
2022/04/06 02:29:00;;;;;;;7.53;2.22;;;8.80;99.90;;;;;;5074119;28;19939;-74
2022/04/06 02:31:26;;;;;;;10.98;2.95;;;8.80;99.90;;;;;;5073861;28;20045;-74
2022/04/06 02:33:51;;;;;;;10.80;2.10;;;8.80;99.90;;;;;;5074412;28;20502;-74
2022/04/06 02:36:17;;;;;;;;;;;8.80;99.90;;;;;;5056737;28;20048;-74
2022/04/06 02:38:47;;;;;;;9.00;2.63;;;8.80;99.90;;;;;;5074122;28;19916;-74
2022/04/06 02:41:13;;;;;;;9.27;2.40;;;8.80;99.90;;;;;;5057010;28;20127;-74
2022/04/06 02:43:39;;;;;;;8.57;2.42;;;8.80;99.90;;;;;;5073707;28;20120;-73
2022/04/06 02:46:08;;;;;;;9.88;2.85;;;8.80;99.90;;;;;;5056444;28;20048;-74
2022/04/06 02:48:34;;;;;;;8.55;2.40;;;8.80;99.90;;;;;;5055831;28;20132;-74
2022/04/06 02:50:59;;;;;;;;;;;8.90;99.90;;;;;;5056202;28;20128;-74
2022/04/06 02:53:25;;;;;;;7.38;2.60;;;8.80;99.90;;;;;;5073667;28;19924;-74
2022/04/06 02:55:50;;;;;;;;;;;8.80;99.90;;;;;;5074669;28;20120;-74
2022/04/06 02:58:16;;;;;;;9.02;2.47;;;8.70;99.90;;;;;;5054895;28;19942;-74
2022/04/06 03:00:42;;;;;;;;;;;8.80;99.90;;;;;;5055725;28;20166;-74
2022/04/06 03:03:08;;;;;;;8.25;2.75;;;8.80;99.90;;;;;;5074202;28;19921;-74
2022/04/06 03:05:39;;;;;;;;;;;8.70;99.90;;;;;;5074402;28;20037;-74
2022/04/06 03:08:06;;;;;;;10.88;3.00;;;8.80;99.90;;;;;;5072985;28;19986;-74
2022/04/06 03:10:32;;;;;;;9.55;3.15;;;8.80;99.90;;;;;;5055971;28;20051;-74
2022/04/06 03:13:01;;;;;;;;;;;8.80;99.90;;;;;;5074469;28;20044;-74
2022/04/06 03:15:33;;;;;;;9.75;3.13;;;8.80;99.90;;;;;;5055203;28;20338;-74
2022/04/06 03:17:58;;;;;;;;;;;8.80;99.90;;;;;;5055439;28;20151;-74
2022/04/06 03:20:24;;;;;;;11.13;3.72;;;8.80;99.90;;;;;;5055053;28;19924;-74
2022/04/06 03:22:49;;;;;;;;;;;8.80;99.90;;;;;;5056426;28;20052;-74
2022/04/06 03:25:15;;;;;;;9.98;3.38;;;8.70;99.90;;;;;;5054956;28;19928;-74
2022/04/06 03:27:41;;;;;;;;;;;8.70;99.90;;;;;;5055058;28;20049;-74
2022/04/06 03:30:10;;;;;;;11.20;3.50;;;8.70;99.90;;;;;;5073554;28;19966;-74
2022/04/06 03:32:36;;;;;;;11.48;4.20;;;8.60;99.90;;;;;;5055334;28;20572;-74
2022/04/06 03:35:07;;;;;;;13.23;3.55;;;8.60;99.90;;;;;;5054323;28;20071;-74
2022/04/06 03:37:34;;;;;;;10.55;3.50;;;8.60;99.90;;;;;;5072648;28;20530;-74
2022/04/06 03:40:01;;;;;;;8.95;3.50;;;8.50;99.90;;;;;;5055569;28;20051;-74
2022/04/06 03:42:27;;;;;;;10.18;3.72;;;8.50;99.90;;;;;;5053819;28;20079;-74
2022/04/06 03:44:55;;;;;;;10.57;3.67;;;8.60;99.90;;;;;;5073021;28;20067;-74
2022/04/06 03:47:26;;;;;;;;;;;8.50;99.90;;;;;;5072921;28;20044;-73
2022/04/06 03:49:52;;;;;;;11.30;3.70;;;8.50;99.90;;;;;;5072669;28;19920;-74
2022/04/06 03:52:18;;;;;;;;;;;8.50;99.90;;;;;;5073286;28;20393;-73
2022/04/06 03:54:46;;;;;;;11.65;3.30;;;8.40;99.90;;;;;;5073017;28;19920;-73
2022/04/06 03:57:12;;;;;;;7.80;3.35;;;8.40;99.90;;;;;;5072427;28;20044;-73
2022/04/06 03:59:38;;;;;;;;;;;8.40;99.90;;;;;;5072225;28;20044;-74
2022/04/06 04:02:04;;;;;;;11.15;3.30;;;8.30;99.90;;;;;;5072943;28;19921;-74
2022/04/06 04:04:32;;;;;;;15.50;3.83;;;8.30;99.90;;;;;;5071772;28;20467;-73
2022/04/06 04:06:58;;;;;;;14.43;3.88;;;8.30;99.90;;;;;;5071321;28;20040;-74
2022/04/06 04:09:24;;;;;;;;;;;8.30;99.90;;;;;;5072372;28;20067;-73
2022/04/06 04:11:49;;;;;;;11.75;3.63;;;8.20;99.90;;;;;;5088074;28;19964;-73
2022/04/06 04:14:15;;;;;;;;;;;8.30;99.90;;;;;;5072383;28;20503;-74
2022/04/06 04:16:40;;;;;;;8.30;3.17;;;8.20;99.90;;;;;;5071848;28;20015;-74
2022/04/06 04:19:06;;;;;;;;;;;8.20;99.90;;;;;;5073186;28;20048;-74
2022/04/06 04:21:32;;;;;;;17.08;3.35;;;8.20;99.90;;;;;;5071721;28;19966;-72
2022/04/06 04:24:01;;;;;;;;;;;8.30;99.90;;;;;;5058968;28;20049;-73
2022/04/06 04:26:28;;;;;;;12.25;3.10;;;8.20;99.90;;;;;;5060886;28;20299;-73
2022/04/06 04:28:53;;;;;;;13.15;3.55;;;8.20;99.90;;;;;;5068129;28;20039;-71
2022/04/06 04:31:19;;;;;;;;;;;8.20;99.90;;;;;;5089132;28;20398;-72
2022/04/06 04:33:44;;;;;;;14.48;3.75;;;8.20;99.90;;;;;;5073983;28;19924;-72
2022/04/06 04:36:10;;;;;;;;;;;8.20;99.90;;;;;;5074744;28;20089;-72
2022/04/06 04:38:38;;;;;;;12.20;3.45;;;8.20;99.90;;;;;;5086997;28;20279;-73
2022/04/06 04:41:07;;;;;;;15.68;3.38;;;8.20;99.90;;;;;;5092709;28;20048;-73
2022/04/06 04:43:33;;;;;;;12.30;3.30;;;8.20;99.90;;;;;;5091228;28;20028;-74
2022/04/06 04:45:59;;;;;;;;;;;8.10;99.90;;;;;;5091848;28;20096;-73
2022/04/06 04:48:24;;;;;;;11.00;3.47;;;8.10;99.90;;;;;;5087385;28;20406;-72
2022/04/06 04:50:50;;;;;;;;;;;8.10;99.90;;;;;;5086667;28;20399;-74
2022/04/06 04:53:15;;;;;;;12.52;3.15;;;8.20;99.90;;;;;;5091241;28;19927;-73
2022/04/06 04:55:41;;;;;;;;;;;8.20;99.90;;;;;;5073144;28;20135;-73
2022/04/06 04:58:07;;;;;;;14.77;3.35;;;8.20;99.90;;;;;;5071186;28;19920;-73
2022/04/06 05:00:36;;;;;;;15.45;3.70;;;8.10;99.90;;;;;;5070412;28;20107;-73
2022/04/06 05:03:02;;;;;;;;;;;8.10;99.90;;;;;;5083033;28;20480;-74
2022/04/06 05:05:29;;;;;;;12.25;3.42;;;8.10;99.90;;;;;;5073959;28;19924;-73
2022/04/06 05:07:57;;;;;;;19.55;4.20;;;8.10;99.90;;;;;;5091445;28;20055;-72
2022/04/06 05:10:26;;;;;;;12.90;3.55;;;8.00;99.90;;;;;;5073335;28;20048;-70
2022/04/06 05:12:52;;;;;;;17.80;4.00;;;8.00;99.90;;;;;;5074684;28;20048;-71
2022/04/06 05:15:18;;;;;;;;;;;8.00;99.90;;;;;;5071901;28;20488;-72
2022/04/06 05:17:44;;;;;;;16.17;3.90;;;8.10;99.90;;;;;;5054088;28;19969;-79
2022/04/06 05:20:10;;;;;;;;;;;8.10;99.90;;;;;;5057361;28;20773;-73
2022/04/06 05:22:36;;;;;;;9.35;3.35;;;8.00;99.90;;;;;;5096029;28;19924;-73
2022/04/06 05:25:04;;;;;;;15.05;3.38;;;8.10;99.90;;;;;;5095770;28;20044;-75
2022/04/06 05:27:31;;;;;;;12.98;4.07;;;8.10;99.90;;;;;;5084022;28;20386;-74
2022/04/06 05:29:59;;;;;;;11.52;3.45;;;8.00;99.90;;;;;;5075476;28;20056;-76
2022/04/06 05:32:25;;;;;;;;;;;8.10;99.90;;;;;;5075541;28;20048;-71
2022/04/06 05:34:50;;;;;;;15.02;3.72;;;8.10;99.90;;;;;;5086649;28;19924;-71
2022/04/06 05:37:16;;;;;;;;;;;8.10;99.90;;;;;;5077880;28;20043;-74
2022/04/06 05:39:42;;;;;;;16.60;3.42;;;8.20;99.90;;;;;;5095653;28;19920;-78
2022/04/06 05:42:08;;;;;;;;;;;8.10;99.90;;;;;;5089899;28;20145;-73
2022/04/06 05:44:34;;;;;;;13.73;3.70;;;8.20;99.90;;;;;;5083761;28;20308;-73
2022/04/06 05:47:00;;;;;;;;;;;8.20;99.90;;;;;;5073873;28;20037;-72
2022/04/06 05:49:25;;;;;;;11.07;2.95;;;8.10;99.90;;;;;;5054447;28;20002;-71
2022/04/06 05:51:51;;;;;;;;;;;8.10;99.90;;;;;;5065507;28;20043;-71
2022/04/06 05:54:16;;;;;;;15.55;3.17;;;8.20;99.90;;;;;;5076659;28;19974;-73
2022/04/06 05:56:42;;;;;;;;;;;8.10;99.90;;;;;;5075719;28;20048;-73
2022/04/06 05:59:08;;;;;;;14.82;3.20;;;8.10;99.90;;;;;;5071822;28;20383;-75
2022/04/06 06:01:33;;;;;;;;;;;8.10;99.90;;;;;;5075609;28;20495;-76
2022/04/06 06:03:59;;;;;;;13.63;3.30;;;8.10;99.90;;;;;;5090074;28;19920;-74
2022/04/06 06:06:24;;;;;;;;;;;8.20;99.90;;;;;;5074046;28;20066;-72
2022/04/06 06:08:50;;;;;;;12.70;2.75;;;8.10;99.90;;;;;;5057079;28;19928;-74
2022/04/06 06:11:16;;;;;;;;;;;8.10;99.90;;;;;;5074422;28;20384;-74
2022/04/06 06:13:41;;;;;;;13.45;2.83;;;8.10;99.90;;;;;;5056943;28;19916;-74
2022/04/06 06:16:07;;;;;;;;;;;8.10;99.90;;;;;;5075056;28;20044;-74
2022/04/06 06:18:32;;;;;;;9.48;2.42;;;8.10;99.90;;;;;;5073826;28;19920;-74
2022/04/06 06:21:00;;;;;;;;;;;8.10;99.90;;;;;;5057075;28;20044;-75
2022/04/06 06:23:27;;;;;;;8.82;2.55;;;8.20;99.90;;;;;;5055956;28;20069;-75
2022/04/06 06:25:52;;;;;;;12.13;2.75;;;8.20;99.90;;;;;;5094650;28;20032;-75
2022/04/06 06:28:18;;;;;;;;;;;8.20;99.90;;;;;;5094787;28;20136;-72
2022/04/06 06:30:44;;;;;;;11.55;2.65;;;8.20;99.90;;;;;;5092039;28;20286;-70
2022/04/06 06:33:10;;;;;;;12.10;3.35;;;8.20;99.90;;;;;;5070711;28;20047;-70
2022/04/06 06:35:36;;;;;;;11.50;2.67;;;8.20;99.90;;;;;;5055059;28;20041;-73
2022/04/06 06:38:01;;;;;;;;;;;8.30;99.90;;;;;;5055602;28;20051;-70
2022/04/06 06:40:28;;;;;;;10.68;3.25;;;8.20;99.90;;;;;;5073569;28;19959;-73
2022/04/06 06:42:57;;;;;;;15.57;3.00;;;8.30;99.90;;;;;;5074033;28;20488;-73
2022/04/06 06:45:26;;;;;;;9.23;3.13;;;8.30;99.90;;;;;;5055416;28;20048;-70
2022/04/06 06:47:51;;;;;;;;;;;8.30;99.90;;;;;;5073733;28;20063;-70
2022/04/06 06:50:18;;;;;;;10.25;3.08;;;8.40;99.90;;;;;;5090595;28;19920;-71
2022/04/06 06:52:44;;;;;;;8.35;2.50;;;8.40;99.90;;;;;;5091825;28;20089;-72
2022/04/06 06:55:11;;;;;;;7.18;2.58;;;8.70;99.90;;;;;;5073474;28;20059;-72
2022/04/06 06:57:37;;;;;;;15.65;2.95;;;8.30;99.90;;;;;;5072163;28;20053;-72
2022/04/06 07:00:05;;;;;;;;;;;8.30;99.90;;;;;;5078517;28;20152;-73
2022/04/06 07:02:31;;;;;;;11.80;2.85;;;8.30;99.90;;;;;;5083451;28;19928;-73
2022/04/06 07:04:56;;;;;;;;;;;8.40;99.90;;;;;;5075366;28;20056;-72
2022/04/06 07:07:22;;;;;;;17.45;3.10;;;8.40;99.90;;;;;;5091717;28;20436;-72
2022/04/06 07:09:47;;;;;;;;;;;8.30;99.90;;;;;;5093026;28;20089;-72
2022/04/06 07:12:13;;;;;;;10.00;2.88;;;8.30;99.90;;;;;;5075830;28;19923;-72
2022/04/06 07:14:38;;;;;;;;;;;8.40;99.90;;;;;;5075352;28;20142;-73
2022/04/06 07:17:04;;;;;;;13.55;3.30;;;8.40;99.90;;;;;;5088109;28;19931;-72
2022/04/06 07:19:30;;;;;;;;;;;8.40;99.90;;;;;;5073233;28;20033;-72
2022/04/06 07:21:56;;;;;;;7.78;2.70;;;8.30;99.90;;;;;;5055120;28;19927;-74
2022/04/06 07:24:21;;;;;;;;;;;8.30;99.90;;;;;;5057612;28;20047;-75
2022/04/06 07:26:50;;;;;;;12.45;2.50;;;8.30;99.90;;;;;;5062568;28;20215;-72
2022/04/06 07:29:19;;;;;;;8.85;2.70;;;8.30;99.90;;;;;;5074516;28;20479;-73
2022/04/06 07:31:44;;;;;;;;;;;8.30;99.90;;;;;;5093442;28;20142;-73
2022/04/06 07:34:10;;;;;;;10.65;2.67;;;8.40;99.90;;;;;;5091101;28;19927;-74
2022/04/06 07:36:37;;;;;;;11.13;2.83;;;8.30;99.90;;;;;;5084593;28;20051;-73
2022/04/06 07:39:06;;;;;;;7.85;2.30;;;8.30;99.90;;;;;;5069473;28;20059;-73
2022/04/06 07:41:32;;;;;;;12.77;2.70;;;8.30;99.90;;;;;;5063148;28;20040;-73
2022/04/06 07:43:58;;;;;;;12.95;3.45;;;8.20;99.90;;;;;;5092649;28;20058;-73
2022/04/06 07:46:23;;;;;;;;;;;8.30;99.90;;;;;;5075063;28;20127;-72
2022/04/06 07:48:49;;;;;;;9.60;2.60;;;8.30;99.90;;;;;;5070469;28;19927;-73
2022/04/06 07:51:15;;;;;;;;;;;8.30;99.90;;;;;;5074930;28;20412;-72
2022/04/06 07:53:41;;;;;;;10.85;2.53;;;8.30;99.90;;;;;;5062810;28;20367;-73
2022/04/06 07:56:06;;;;;;;;;;;8.50;99.90;;;;;;5071414;28;20089;-72
2022/04/06 07:58:33;;;;;;;14.77;2.88;;;8.50;99.90;;;;;;5073839;28;19969;-72
2022/04/06 08:01:01;;;;;;;13.73;2.60;;;8.50;99.90;;;;;;5074255;28;20553;-72
2022/04/06 08:03:26;;;;;;;11.45;2.25;;;8.60;99.90;;;;;;5060948;28;20064;-72
2022/04/06 08:05:52;;;;;;;;;;;8.60;99.90;;;;;;5072516;28;20089;-73
2022/04/06 08:08:21;;;;;;;13.23;2.22;;;8.70;99.90;;;;;;5053530;28;20004;-74
2022/04/06 08:10:46;;;;;;;;;;;8.70;99.90;;;;;;5072066;28;20445;-72
2022/04/06 08:13:12;;;;;;;7.75;2.13;;;8.80;99.90;;;;;;5054340;28;19943;-72
2022/04/06 08:15:37;;;;;;;;;;;8.90;99.90;;;;;;5059235;28;20096;-72
2022/04/06 08:18:03;;;;;;;10.02;2.92;;;9.10;99.90;;;;;;5073004;28;19927;-72
2022/04/06 08:20:29;;;;;;;;;;;9.10;99.90;;;;;;5091408;28;20513;-72
2022/04/06 08:22:57;;;;;;;6.43;1.90;;;9.20;99.90;;;;;;5073561;28;19920;-71
2022/04/06 08:25:23;;;;;;;12.57;2.80;;;9.20;99.90;;;;;;5059609;28;20072;-71
2022/04/06 08:27:48;;;;;;;;;;;9.30;99.90;;;;;;5072544;28;20080;-71
2022/04/06 08:30:20;;;;;;;13.00;2.83;;;9.70;99.90;;;;;;5087097;28;19942;-71
2022/04/06 08:32:49;;;;;;;6.47;1.90;;;9.30;99.90;;;;;;5091102;28;20123;-71
2022/04/06 08:35:14;;;;;;;9.45;2.22;;;9.40;99.90;;;;;;5091789;28;20059;-71
2022/04/06 08:37:40;;;;;;;;;;;10.50;99.90;;;;;;5091289;28;20032;-72
2022/04/06 08:40:10;;;;;;;7.47;2.58;;;9.70;99.90;;;;;;5063450;28;19924;-72
2022/04/06 08:42:39;;;;;;;10.85;2.40;;;10.00;99.90;;;;;;5053226;28;20084;-71
2022/04/06 08:45:10;;;;;;;11.60;2.42;;;10.80;99.90;;;;;;5076992;28;20086;-74
2022/04/06 08:47:36;;;;;;;8.20;2.40;;;11.30;99.90;;;;;;5073671;28;20090;-73
2022/04/06 08:50:06;;;;;;;7.80;2.30;;;11.50;99.90;;;;;;5091230;28;20040;-72
2022/04/06 08:52:32;;;;;;;11.57;2.88;;;11.60;99.90;;;;;;5075654;28;20408;-74
2022/04/06 08:54:58;;;;;;;11.30;2.35;;;12.00;99.90;;;;;;5072162;28;20037;-74
2022/04/06 08:57:25;;;;;;;;;;;12.00;99.90;;;;;;5075907;28;20048;-74
2022/04/06 08:59:51;;;;;;;12.02;2.28;;;12.00;99.90;;;;;;5057157;28;19929;-75
2022/04/06 09:02:21;;;;;;;6.75;1.90;;;11.90;99.90;;;;;;5057915;28;20059;-74
2022/04/06 09:04:54;;;;;;;11.35;2.45;;;11.90;99.90;;;;;;5057794;28;20032;-74
2022/04/06 09:07:22;;;;;;;9.23;2.58;;;11.80;99.90;;;;;;5075251;28;20048;-74
2022/04/06 09:09:52;;;;;;;9.45;2.30;;;11.90;99.90;;;;;;5076061;28;20072;-73
2022/04/06 09:12:24;;;;;;;9.02;2.20;;;11.50;99.90;;;;;;5057499;28;20048;-74
2022/04/06 09:15:12;;;;;;;9.30;2.28;;;11.70;99.90;;;;;;5058024;28;20048;-75
2022/04/06 09:17:47;;;;;;;11.32;1.90;;;11.30;99.90;;;;;;5075207;28;20041;-74
2022/04/06 09:20:14;;;;;;;9.68;2.60;;;11.10;99.90;;;;;;5056872;28;20045;-74
2022/04/06 09:22:41;;;;;;;11.70;2.50;;;10.80;99.90;;;;;;5075207;28;20389;-74
2022/04/06 09:25:08;;;;;;;7.13;2.70;;;10.70;99.90;;;;;;5075969;28;20051;-74
2022/04/06 09:27:33;;;;;;;10.75;2.80;;;10.70;99.90;;;;;;5085194;28;20040;-74
2022/04/06 09:30:02;;;;;;;;;;;10.80;99.90;;;;;;5096562;28;20063;-74
2022/04/06 09:32:31;;;;;;;9.85;2.35;;;10.70;99.90;;;;;;5095484;28;19916;-73
2022/04/06 09:34:56;;;;;;;7.13;2.25;;;10.70;99.90;;;;;;5067435;28;20380;-74
2022/04/06 09:37:26;;;;;;;;;;;10.70;99.90;;;;;;5075513;28;20032;-73
2022/04/06 09:39:52;;;;;;;10.30;3.00;;;10.90;99.90;;;;;;5075065;28;19927;-73
2022/04/06 09:42:31;;;;;;;10.27;3.03;;;11.00;99.90;;;;;;5094721;28;20500;-73
2022/04/06 09:47:53;;;;;;;12.27;4.00;;;11.20;99.90;;;;;;5074617;28;20067;-72
2022/04/06 09:50:29;;;;;;;12.20;2.65;;;11.50;99.90;;;;;;5074767;28;20044;-72
2022/04/06 09:53:00;;;;;;;7.97;2.20;;;11.70;99.90;;;;;;5077700;28;20152;-72
2022/04/06 09:55:25;;;;;;;11.13;2.30;;;12.00;99.90;;;;;;5056681;28;20063;-70
2022/04/06 09:57:52;;;;;;;;;;;12.10;99.90;;;;;;5075087;28;20404;-70
2022/04/06 10:00:20;;;;;;;15.30;3.00;;;12.00;99.90;;;;;;5074052;28;19920;-69
2022/04/06 10:02:49;;;;;;;14.60;3.17;;;11.80;99.90;;;;;;5056591;28;20056;-71
2022/04/06 10:05:18;;;;;;;13.18;2.88;;;11.80;99.90;;;;;;5056647;28;20127;-71
2022/04/06 10:07:44;;;;;;;11.90;3.00;;;11.70;99.90;;;;;;5073893;28;20047;-70
2022/04/06 10:10:10;;;;;;;;;;;11.70;99.90;;;;;;5075271;28;20037;-70
2022/04/06 10:12:36;;;;;;;14.30;3.58;;;11.50;99.90;;;;;;5079140;28;19920;-70
2022/04/06 10:15:02;;;;;;;;;;;11.50;99.90;;;;;;5096094;28;20054;-72
2022/04/06 10:17:29;;;;;;;12.10;2.85;;;11.50;99.90;;;;;;5060763;28;19931;-79
2022/04/06 10:20:34;;;;;;;9.90;2.83;;;11.50;99.90;;;;;;5074632;28;20066;-76
2022/04/06 10:23:16;;;;;;;9.40;2.63;;;11.50;99.90;;;;;;5074212;28;20170;-78
2022/04/06 10:25:51;;;;;;;13.27;2.65;;;11.60;99.90;;;;;;5078252;28;20479;-76
2022/04/06 10:28:20;;;;;;;12.27;2.50;;;11.50;99.90;;;;;;5075488;28;20048;-74
2022/04/06 10:34:28;;;;;;;11.63;2.95;;;11.40;99.90;;;;;;5058986;28;20067;-74
2022/04/06 10:37:12;;;;;;;10.18;3.20;;;11.70;99.90;;;;;;5074012;28;20040;-71
2022/04/06 10:39:57;;;;;;;15.23;3.38;;;12.30;99.90;;;;;;5055834;28;20080;-72
2022/04/06 10:42:34;;;;;;;10.32;2.70;;;12.80;99.90;;;;;;5056655;28;20048;-76
2022/04/06 10:45:29;;;;;;;14.50;3.20;;;12.50;99.90;;;;;;5055760;28;20057;-77
2022/04/06 10:48:13;;;;;;;7.78;2.60;;;12.70;99.90;;;;;;5053298;28;20056;-72
2022/04/06 10:50:44;;;;;;;10.98;2.80;;;12.70;99.90;;;;;;5072680;28;20051;-73
2022/04/06 10:53:21;;;;;;;11.50;2.97;;;12.70;99.90;;;;;;5074111;28;20045;-73
2022/04/06 10:56:12;;;;;;;10.70;2.60;;;12.50;99.90;;;;;;5074093;28;20076;-71
2022/04/06 10:59:07;;;;;;;15.65;3.40;;;12.50;99.90;;;;;;5072118;28;20044;-71
2022/04/06 11:01:34;;;;;;;18.52;3.00;;;12.40;99.90;;;;;;5055415;28;20106;-70
2022/04/06 11:04:15;;;;;;;15.00;3.53;;;12.20;99.90;;;;;;5050118;28;20048;-70
2022/04/06 11:06:49;;;;;;;14.15;3.63;;;11.90;99.90;;;;;;5055367;28;20087;-70
2022/04/06 11:12:13;;;;;;;14.10;3.33;;;12.50;99.90;;;;;;5072936;28;20054;-72
2022/04/06 11:14:40;;;;;;;14.75;3.10;;;12.90;99.90;;;;;;5056265;28;20439;-73
2022/04/06 11:17:44;;;;;;;11.98;3.28;;;13.00;99.90;;;;;;5053303;28;20060;-70
2022/04/06 11:20:16;;;;;;;11.70;3.35;;;13.10;99.90;;;;;;5053292;28;20086;-71
2022/04/06 11:22:56;;;;;;;12.75;3.17;;;13.30;99.90;;;;;;5044365;28;20131;-73
2022/04/06 11:25:30;;;;;;;11.50;3.58;;;13.60;99.90;;;;;;5055237;28;20045;-73
2022/04/06 11:28:09;;;;;;;7.47;2.63;;;13.70;99.90;;;;;;5071508;28;20044;-73
2022/04/06 11:30:39;;;;;;;11.73;3.13;;;13.80;99.90;;;;;;5053351;28;20391;-73
2022/04/06 11:33:04;;;;;;;10.88;3.30;;;13.70;99.90;;;;;;5035051;28;20186;-74
2022/04/06 11:35:35;;;;;;;10.65;2.78;;;13.70;99.90;;;;;;5034924;28;20128;-75
2022/04/06 11:38:04;;;;;;;14.60;3.28;;;13.50;99.90;;;;;;5053269;28;20543;-73
2022/04/06 11:40:29;;;;;;;11.60;3.80;;;13.40;99.90;;;;;;5034253;28;20052;-75
2022/04/06 11:42:57;;;;;;;16.35;3.90;;;13.40;99.90;;;;;;5052995;28;20247;-75
2022/04/06 11:45:25;;;;;;;13.00;3.60;;;13.40;99.90;;;;;;5065458;28;20064;-74
2022/04/06 11:47:55;;;;;;;11.48;3.78;;;13.30;99.90;;;;;;5072602;28;20080;-72
2022/04/06 11:50:29;;;;;;;21.40;6.30;;;13.20;99.90;;;;;;5072795;28;20041;-73
2022/04/06 11:52:56;;;;;;;15.05;3.97;;;13.10;99.90;;;;;;5055425;28;20064;-72
2022/04/06 11:55:48;;;;;;;14.07;3.65;;;12.80;99.90;;;;;;5072088;28;20041;-74
2022/04/06 11:58:33;;;;;;;14.95;3.30;;;12.70;99.90;;;;;;5051850;28;20120;-75
2022/04/06 12:01:10;;;;;;;14.05;3.28;;;12.70;99.90;;;;;;5051340;28;20057;-73
2022/04/06 12:03:40;;;;;;;16.02;4.38;;;12.50;99.90;;;;;;5052399;28;20064;-72
2022/04/06 12:06:09;;;;;;;12.60;3.67;;;12.60;99.90;;;;;;5051510;28;20174;-72
2022/04/06 12:08:36;;;;;;;17.20;3.85;;;12.60;99.90;;;;;;5049356;28;20484;-74
2022/04/06 12:11:02;;;;;;;12.60;3.42;;;12.50;99.90;;;;;;5051328;28;20128;-74
2022/04/06 12:13:32;;;;;;;20.40;5.35;;;12.40;99.90;;;;;;5051741;28;20120;-74
2022/04/06 12:16:02;;;;;;;19.98;4.85;;;12.40;99.90;;;;;;5052163;28;20045;-72
2022/04/06 12:18:30;;;;;;;17.17;5.05;;;12.30;99.90;;;;;;5033440;28;20139;-74
2022/04/06 12:20:56;;;;;;;12.07;3.55;;;12.10;99.90;;;;;;5048409;28;20041;-73
2022/04/06 12:23:24;;;;;;;16.40;4.28;;;12.10;99.90;;;;;;5050428;28;20581;-72
2022/04/06 12:25:50;;;;;;;13.80;3.72;;;12.10;99.90;;;;;;5051287;28;20177;-71
2022/04/06 12:28:18;;;;;;;;;;;12.00;99.90;;;;;;5050778;28;20498;-71
2022/04/06 12:30:53;;;;;;;15.88;3.83;;;12.10;99.90;;;;;;5051186;28;20379;-71
2022/04/06 12:33:41;;;;;;;12.47;3.57;;;12.00;99.90;;;;;;5051391;28;20052;-70
2022/04/06 12:36:23;;;;;;;13.13;3.22;;;12.10;99.90;;;;;;5051051;28;20721;-71
2022/04/06 12:39:04;;;;;;;17.13;4.63;;;12.00;99.90;;;;;;5049054;28;20528;-74
2022/04/06 12:41:37;;;;;;;17.67;4.18;;;11.80;99.90;;;;;;5041487;28;20045;-75
2022/04/06 12:44:13;;;;;;;14.93;3.55;;;11.80;99.90;;;;;;5051275;28;20044;-75
2022/04/06 12:46:40;;;;;;;;;;;11.90;99.90;;;;;;5036921;28;20381;-77
2022/04/06 12:49:35;;;;;;;12.98;4.63;;;11.90;99.90;;;;;;5065480;28;19964;-75
2022/04/06 12:52:20;;;;;;;16.05;4.13;;;12.00;99.90;;;;;;5060536;28;20528;-73
2022/04/06 12:55:00;;;;;;;14.98;4.90;;;12.00;99.90;;;;;;5040594;28;20363;-75
2022/04/06 12:57:25;;;;;;;9.40;3.80;;;11.90;99.90;;;;;;5032010;28;20046;-76
2022/04/06 12:59:57;;;;;;;;;;;13.10;99.90;;;;;;5039980;28;20055;-73
2022/04/06 13:02:38;;;;;;;12.20;3.80;;;12.30;99.90;;;;;;5054478;28;19921;-71
2022/04/06 13:05:11;;;;;;;11.80;3.25;;;11.90;99.90;;;;;;5058988;28;20120;-72
2022/04/06 13:07:42;;;;;;;9.82;3.00;;;11.80;99.90;;;;;;5041943;28;20050;-71
2022/04/06 13:10:12;;;;;;;13.85;3.55;;;11.80;99.90;;;;;;5059035;28;20535;-72
2022/04/06 13:12:40;;;;;;;10.38;3.00;;;11.90;99.90;;;;;;5057359;28;20063;-72
2022/04/06 13:15:06;;;;;;;10.93;3.50;;;12.00;99.90;;;;;;5041268;28;20144;-72
2022/04/06 13:17:34;;;;;;;15.98;3.25;;;11.90;99.90;;;;;;5051596;28;20045;-71
2022/04/06 13:19:59;;;;;;;10.20;2.63;;;12.10;99.90;;;;;;5043089;28;20103;-71
2022/04/06 13:22:25;;;;;;;;;;;11.90;99.90;;;;;;5052023;28;20041;-70
2022/04/06 13:24:50;;;;;;;11.20;3.20;;;11.80;99.90;;;;;;5052097;28;19924;-71
2022/04/06 13:27:21;;;;;;;11.57;3.30;;;11.80;99.90;;;;;;5050847;28;20072;-71